Time;durP1;ratioP1;P1;durP2;ratioP2;P2;SDS_P1;SDS_P2;PMS_P1;PMS_P2;Temp;Humidity;BMP_temperature;BMP_pressure;BME280_temperature;BME280_humidity;BME280_pressure;Samples;Min_cycle;Max_cycle;Signal;HPM_P1;HPM_P2
2023/12/20 00:02:02;;;;;;;;;;;;;;;1.16;68.56;95290.47;4971959;28;19933;-67
2023/12/20 00:04:27;;;;;;;;;;;;;;;0.96;68.85;95297.38;4960622;28;19930;-65
2023/12/20 00:06:53;;;;;;;;;;;;;;;0.85;69.82;95298.22;4960378;28;19922;-66
2023/12/20 00:09:18;;;;;;;;;;;;;;;1.38;68.06;95291.31;4959794;28;19933;-65
2023/12/20 00:11:43;;;;;;;;;;;;;;;1.13;68.61;95279.41;4959404;28;20118;-67
2023/12/20 00:14:08;;;;;;;;;;;;;;;1.77;67.57;95288.09;4972395;28;20009;-67
2023/12/20 00:16:34;;;;;;;;;;;;;;;1.64;67.46;95292.75;4972156;28;19928;-66
2023/12/20 00:18:59;;;;;;;;;;;;;;;1.74;67.51;95286.56;4971280;28;20559;-67
2023/12/20 00:21:24;;;;;;;;;;;;;;;1.78;66.79;95279.28;4959696;28;19929;-67
2023/12/20 00:23:49;;;;;;;;;;;;;;;2.03;65.24;95276.31;4967313;28;20127;-67
2023/12/20 00:26:15;;;;;;;;;;;;;;;1.36;66.67;95272.22;4959942;28;20366;-67
2023/12/20 00:28:40;;;;;;;;;;;;;;;1.83;65.34;95268.38;4971319;28;20077;-65
2023/12/20 00:31:05;;;;;;;;;;;;;;;1.90;64.68;95274.75;4967636;28;19941;-66
2023/12/20 00:33:30;;;;;;;;;;;;;;;1.62;65.00;95275.34;4959885;28;20485;-65
2023/12/20 00:35:56;;;;;;;;;;;;;;;1.39;65.44;95273.78;4967420;28;19988;-66
2023/12/20 00:38:21;;;;;;;;;;;;;;;1.66;65.38;95269.84;4963791;28;19925;-66
2023/12/20 00:40:46;;;;;;;;;;;;;;;1.45;64.38;95266.22;4966567;28;19933;-65
2023/12/20 00:43:11;;;;;;;;;;;;;;;1.54;66.31;95258.56;4966363;28;19922;-67
2023/12/20 00:45:37;;;;;;;;;;;;;;;1.21;66.73;95269.13;4959693;28;20102;-66
2023/12/20 00:48:02;;;;;;;;;;;;;;;1.05;67.63;95264.31;4959402;28;19929;-65
2023/12/20 00:50:27;;;;;;;;;;;;;;;1.05;67.59;95273.00;4967259;28;20322;-65
2023/12/20 00:52:54;;;;;;;;;;;;;;;1.34;67.14;95266.31;4955992;28;19922;-67
2023/12/20 00:55:19;;;;;;;;;;;;;;;1.32;66.85;95266.44;4966495;28;19952;-67
2023/12/20 00:57:45;;;;;;;;;;;;;;;1.18;68.19;95264.97;4974312;28;19926;-67
2023/12/20 01:00:10;;;;;;;;;;;;;;;1.18;68.23;95269.38;4960922;28;19933;-68
2023/12/20 01:02:35;;;;;;;;;;;;;;;1.33;66.98;95267.28;4973660;28;19925;-68
2023/12/20 01:05:01;;;;;;;;;;;;;;;1.57;66.12;95258.31;4960556;28;20372;-68
2023/12/20 01:07:26;;;;;;;;;;;;;;;1.30;67.04;95267.53;4974540;28;19929;-69
2023/12/20 01:09:51;;;;;;;;;;;;;;;1.64;66.38;95264.72;4963489;28;19926;-70
2023/12/20 01:12:16;;;;;;;;;;;;;;;1.60;66.86;95264.13;4974153;28;19987;-68
2023/12/20 01:14:42;;;;;;;;;;;;;;;1.42;67.60;95266.47;4963916;28;19969;-67
2023/12/20 01:17:07;;;;;;;;;;;;;;;0.23;67.99;95276.94;4961957;28;20670;-71
2023/12/20 01:19:32;;;;;;;;;;;;;;;1.46;66.44;95260.03;4962289;28;20104;-70
2023/12/20 01:21:58;;;;;;;;;;;;;;;1.52;66.90;95269.16;4969422;28;20397;-65
2023/12/20 01:24:23;;;;;;;;;;;;;;;1.56;66.74;95257.47;4963717;28;19976;-67
2023/12/20 01:26:48;;;;;;;;;;;;;;;1.61;66.58;95259.72;4962948;28;19958;-69
2023/12/20 01:29:14;;;;;;;;;;;;;;;0.96;68.80;95252.81;4961395;28;20199;-67
2023/12/20 01:31:40;;;;;;;;;;;;;;;0.71;69.28;95260.88;4969480;28;20085;-68
2023/12/20 01:34:05;;;;;;;;;;;;;;;0.83;70.93;95252.97;4963922;28;19922;-69
2023/12/20 01:36:30;;;;;;;;;;;;;;;0.80;70.13;95248.81;4969995;28;19922;-69
2023/12/20 01:38:56;;;;;;;;;;;;;;;1.01;69.96;95248.00;4963466;28;20125;-67
2023/12/20 01:41:21;;;;;;;;;;;;;;;0.24;73.20;95266.38;4962066;28;20395;-69
2023/12/20 01:43:46;;;;;;;;;;;;;;;0.54;72.54;95253.53;4964661;28;19926;-70
2023/12/20 01:46:12;;;;;;;;;;;;;;;0.56;72.74;95252.50;4959677;28;19969;-66
2023/12/20 01:48:37;;;;;;;;;;;;;;;0.34;73.39;95246.34;4966926;28;20345;-67
2023/12/20 01:51:03;;;;;;;;;;;;;;;-0.19;75.80;95260.94;4965426;28;19929;-67
2023/12/20 01:53:28;;;;;;;;;;;;;;;-0.82;79.50;95256.13;4959735;28;19926;-68
2023/12/20 01:55:54;;;;;;;;;;;;;;;-0.89;81.02;95257.53;4960958;28;19961;-68
2023/12/20 01:58:19;;;;;;;;;;;;;;;-1.27;82.97;95264.63;4962765;28;19925;-66
2023/12/20 02:00:44;;;;;;;;;;;;;;;-1.09;83.37;95265.06;4960619;28;19926;-68
2023/12/20 02:03:10;;;;;;;;;;;;;;;-1.29;84.26;95264.75;4968404;28;19925;-68
2023/12/20 02:05:35;;;;;;;;;;;;;;;-1.51;85.49;95273.31;4963604;28;19922;-67
2023/12/20 02:08:00;;;;;;;;;;;;;;;-1.36;85.67;95269.59;4967233;28;20040;-68
2023/12/20 02:10:26;;;;;;;;;;;;;;;-1.45;85.72;95267.66;4966065;28;19925;-66
2023/12/20 02:12:51;;;;;;;;;;;;;;;-1.80;87.40;95282.28;4973016;28;20126;-68
2023/12/20 02:15:16;;;;;;;;;;;;;;;-1.76;88.19;95281.13;4961113;28;20042;-66
2023/12/20 02:17:41;;;;;;;;;;;;;;;-2.06;89.78;95290.19;4975329;28;20505;-66
2023/12/20 02:20:07;;;;;;;;;;;;;;;-1.98;89.98;95311.38;4969039;28;19934;-65
2023/12/20 02:22:32;;;;;;;;;;;;;;;-2.37;90.03;95300.16;4962976;28;20540;-66
2023/12/20 02:24:57;;;;;;;;;;;;;;;-2.47;88.92;95307.75;4964525;28;19937;-67
2023/12/20 02:27:23;;;;;;;;;;;;;;;-2.00;87.58;95315.03;4972797;28;20021;-67
2023/12/20 02:29:48;;;;;;;;;;;;;;;-1.61;85.80;95305.31;4964822;28;19926;-65
2023/12/20 02:32:13;;;;;;;;;;;;;;;-2.13;86.46;95304.59;4968648;28;19925;-67
2023/12/20 02:34:38;;;;;;;;;;;;;;;-2.28;88.02;95306.47;4961092;28;20391;-67
2023/12/20 02:37:04;;;;;;;;;;;;;;;-2.30;87.15;95309.22;4960617;28;19948;-66
2023/12/20 02:39:29;;;;;;;;;;;;;;;-2.42;88.75;95316.09;4960389;28;19926;-70
2023/12/20 02:41:55;;;;;;;;;;;;;;;-2.51;88.06;95325.38;4958183;28;19933;-66
2023/12/20 02:44:20;;;;;;;;;;;;;;;-2.25;87.43;95316.72;4962063;28;20482;-67
2023/12/20 02:46:45;;;;;;;;;;;;;;;-2.01;86.00;95308.97;4961116;28;19945;-68
2023/12/20 02:49:10;;;;;;;;;;;;;;;-2.31;87.99;95289.28;4966246;28;19926;-67
2023/12/20 02:51:38;;;;;;;;;;;;;;;-2.34;87.44;95306.91;4959573;28;20043;-67
2023/12/20 02:54:03;;;;;;;;;;;;;;;-2.42;87.50;95292.63;4968132;28;19924;-66
2023/12/20 02:56:29;;;;;;;;;;;;;;;-2.56;87.16;95296.19;4968493;28;20000;-66
2023/12/20 02:58:54;;;;;;;;;;;;;;;-2.30;86.87;95303.16;4971934;28;19937;-69
2023/12/20 03:01:19;;;;;;;;;;;;;;;-2.48;87.69;95300.03;4963339;28;19929;-69
2023/12/20 03:03:45;;;;;;;;;;;;;;;-2.19;86.07;95308.47;4961339;28;19961;-67
2023/12/20 03:06:10;;;;;;;;;;;;;;;-2.38;87.15;95311.50;4963596;28;20018;-67
2023/12/20 03:08:35;;;;;;;;;;;;;;;-2.35;86.53;95313.91;4961858;28;19926;-66
2023/12/20 03:11:00;;;;;;;;;;;;;;;-2.29;86.10;95318.72;4960213;28;20350;-69
2023/12/20 03:13:26;;;;;;;;;;;;;;;-2.34;87.26;95314.75;4960398;28;19926;-67
2023/12/20 03:15:51;;;;;;;;;;;;;;;-2.10;86.04;95314.84;4962962;28;20588;-68
2023/12/20 03:18:17;;;;;;;;;;;;;;;-2.29;86.44;95320.47;4972583;28;19928;-67
2023/12/20 03:20:43;;;;;;;;;;;;;;;-2.20;87.11;95321.63;4963397;28;19926;-67
2023/12/20 03:23:08;;;;;;;;;;;;;;;-2.35;86.04;95321.72;4972643;28;19925;-70
2023/12/20 03:25:33;;;;;;;;;;;;;;;-2.17;86.04;95316.19;4963855;28;19933;-66
2023/12/20 03:27:59;;;;;;;;;;;;;;;-2.32;86.58;95318.06;4969709;28;19922;-67
2023/12/20 03:30:24;;;;;;;;;;;;;;;-2.37;86.64;95326.22;4959125;28;20569;-65
2023/12/20 03:32:49;;;;;;;;;;;;;;;-2.58;87.13;95318.09;4962086;28;20570;-66
2023/12/20 03:35:14;;;;;;;;;;;;;;;-2.42;87.11;95325.69;4960275;28;20079;-66
2023/12/20 03:37:40;;;;;;;;;;;;;;;-2.70;87.52;95317.97;4960162;28;19922;-66
2023/12/20 03:40:05;;;;;;;;;;;;;;;-2.77;87.37;95327.13;4958802;28;19930;-66
2023/12/20 03:42:30;;;;;;;;;;;;;;;-2.96;87.71;95317.91;4959632;28;20398;-67
2023/12/20 03:44:56;;;;;;;;;;;;;;;-3.09;88.07;95333.50;4958901;28;20750;-67
2023/12/20 03:47:21;;;;;;;;;;;;;;;-3.15;87.91;95321.72;4958239;28;19922;-65
2023/12/20 03:49:46;;;;;;;;;;;;;;;-3.03;87.29;95327.06;4959947;28;19925;-65
2023/12/20 03:52:12;;;;;;;;;;;;;;;-3.34;87.06;95337.72;4958796;28;19922;-65
2023/12/20 03:54:37;;;;;;;;;;;;;;;-3.57;88.26;95368.63;4959600;28;19922;-64
2023/12/20 03:57:03;;;;;;;;;;;;;;;-3.53;87.94;95340.66;4963389;28;19922;-65
2023/12/20 03:59:28;;;;;;;;;;;;;;;-3.91;89.13;95349.91;4964214;28;20009;-66
2023/12/20 04:01:53;;;;;;;;;;;;;;;-3.80;88.43;95352.69;4964431;28;19930;-67
2023/12/20 04:04:18;;;;;;;;;;;;;;;-3.79;88.12;95338.75;4957864;28;20168;-67
2023/12/20 04:06:44;;;;;;;;;;;;;;;-3.72;87.90;95339.22;4959302;28;19926;-67
2023/12/20 04:09:09;;;;;;;;;;;;;;;-3.60;87.84;95341.97;4959357;28;20025;-65
2023/12/20 04:11:34;;;;;;;;;;;;;;;-3.64;87.02;95343.09;4962301;28;20265;-66
2023/12/20 04:14:00;;;;;;;;;;;;;;;-3.46;85.19;95341.09;4960161;28;19927;-66
2023/12/20 04:16:26;;;;;;;;;;;;;;;-3.41;84.31;95326.84;4960927;28;19930;-65
2023/12/20 04:18:51;;;;;;;;;;;;;;;-3.22;83.15;95335.25;4952790;28;19922;-66
2023/12/20 04:21:16;;;;;;;;;;;;;;;-3.24;83.51;95332.75;4959339;28;19984;-65
2023/12/20 04:23:41;;;;;;;;;;;;;;;-2.92;82.64;95342.00;4959098;28;20005;-67
2023/12/20 04:26:07;;;;;;;;;;;;;;;-3.04;83.16;95344.47;4959158;28;19934;-66
2023/12/20 04:28:32;;;;;;;;;;;;;;;-3.10;83.86;95341.41;4957402;28;19937;-65
2023/12/20 04:30:57;;;;;;;;;;;;;;;-3.33;85.21;95339.38;4957635;28;19925;-66
2023/12/20 04:33:22;;;;;;;;;;;;;;;-3.37;85.93;95366.53;4959406;28;19926;-65
2023/12/20 04:35:48;;;;;;;;;;;;;;;-3.52;86.32;95350.13;4960814;28;19967;-66
2023/12/20 04:38:13;;;;;;;;;;;;;;;-3.54;87.29;95341.56;4952785;28;20741;-69
2023/12/20 04:40:40;;;;;;;;;;;;;;;-3.55;87.66;95358.97;4959075;28;19964;-70
2023/12/20 04:43:06;;;;;;;;;;;;;;;-3.12;84.80;95331.13;4958383;28;20017;-67
2023/12/20 04:45:31;;;;;;;;;;;;;;;-2.92;84.13;95326.38;4958739;28;20036;-70
2023/12/20 04:47:56;;;;;;;;;;;;;;;-2.71;83.31;95325.88;4956569;28;19922;-67
2023/12/20 04:50:21;;;;;;;;;;;;;;;-3.04;84.25;95351.44;4959382;28;20009;-69
2023/12/20 04:52:47;;;;;;;;;;;;;;;-3.84;88.02;95343.41;4962406;28;20414;-66
2023/12/20 04:55:12;;;;;;;;;;;;;;;-4.16;90.38;95354.00;4967779;28;20008;-67
2023/12/20 04:57:37;;;;;;;;;;;;;;;-4.32;92.59;95359.28;4966294;28;20668;-68
2023/12/20 05:00:03;;;;;;;;;;;;;;;-4.34;93.41;95351.59;4970222;28;19922;-69
2023/12/20 05:02:28;;;;;;;;;;;;;;;-4.33;93.74;95345.47;4965514;28;20044;-67
2023/12/20 05:04:53;;;;;;;;;;;;;;;-4.47;95.23;95371.44;4959984;28;19922;-69
2023/12/20 05:07:18;;;;;;;;;;;;;;;-4.35;95.20;95362.09;4962413;28;20611;-66
2023/12/20 05:09:44;;;;;;;;;;;;;;;-4.14;93.25;95357.38;4967360;28;19914;-69
2023/12/20 05:12:09;;;;;;;;;;;;;;;-4.27;93.21;95365.06;4957998;28;19926;-67
2023/12/20 05:14:34;;;;;;;;;;;;;;;-3.99;92.17;95352.16;4965040;28;20631;-67
2023/12/20 05:16:59;;;;;;;;;;;;;;;-4.09;92.34;95350.13;4963175;28;19926;-66
2023/12/20 05:19:26;;;;;;;;;;;;;;;-4.00;91.78;95353.94;4964007;28;19963;-68
2023/12/20 05:21:51;;;;;;;;;;;;;;;-3.56;90.62;95351.25;4962896;28;19930;-67
2023/12/20 05:24:16;;;;;;;;;;;;;;;-3.56;90.50;95354.69;4963242;28;20303;-66
2023/12/20 05:26:42;;;;;;;;;;;;;;;-3.64;89.86;95354.31;4962508;28;19926;-67
2023/12/20 05:29:07;;;;;;;;;;;;;;;-3.41;89.83;95355.50;4959193;28;20666;-69
2023/12/20 05:31:32;;;;;;;;;;;;;;;-3.66;89.34;95351.00;4959647;28;19944;-70
2023/12/20 05:33:58;;;;;;;;;;;;;;;-3.45;89.20;95350.56;4962615;28;19922;-65
2023/12/20 05:36:23;;;;;;;;;;;;;;;-3.18;87.43;95355.81;4962032;28;19933;-69
2023/12/20 05:38:48;;;;;;;;;;;;;;;-3.52;89.46;95345.75;4970072;28;20751;-69
2023/12/20 05:41:13;;;;;;;;;;;;;;;-3.41;89.08;95373.72;4961524;28;19930;-66
2023/12/20 05:43:39;;;;;;;;;;;;;;;-3.29;87.87;95334.81;4960561;28;19929;-66
2023/12/20 05:46:04;;;;;;;;;;;;;;;-3.64;90.04;95349.13;4960310;28;19928;-66
2023/12/20 05:48:29;;;;;;;;;;;;;;;-3.52;89.40;95332.72;4961294;28;19929;-69
2023/12/20 05:50:55;;;;;;;;;;;;;;;-3.75;91.20;95344.59;4960879;28;20030;-67
2023/12/20 05:53:20;;;;;;;;;;;;;;;-4.05;92.60;95345.56;4961085;28;19922;-68
2023/12/20 05:55:45;;;;;;;;;;;;;;;-3.93;92.52;95354.38;4965302;28;19933;-66
2023/12/20 05:58:10;;;;;;;;;;;;;;;-3.94;91.77;95352.72;4967965;28;20011;-67
2023/12/20 06:00:36;;;;;;;;;;;;;;;-3.79;92.54;95350.94;4964585;28;19922;-66
2023/12/20 06:03:01;;;;;;;;;;;;;;;-4.20;93.69;95365.53;4960852;28;19926;-68
2023/12/20 06:05:26;;;;;;;;;;;;;;;-4.09;94.02;95368.31;4961671;28;20020;-68
2023/12/20 06:07:52;;;;;;;;;;;;;;;-3.89;93.07;95387.09;4962433;28;19925;-68
2023/12/20 06:10:17;;;;;;;;;;;;;;;-4.07;93.39;95371.66;4963620;28;20486;-67
2023/12/20 06:12:42;;;;;;;;;;;;;;;-4.12;93.55;95391.91;4963184;28;19926;-67
2023/12/20 06:15:08;;;;;;;;;;;;;;;-4.09;93.58;95373.53;4964065;28;19922;-70
2023/12/20 06:17:34;;;;;;;;;;;;;;;-4.05;93.57;95382.81;4965367;28;19929;-66
2023/12/20 06:20:00;;;;;;;;;;;;;;;-3.87;92.68;95364.41;4961599;28;20509;-67
2023/12/20 06:22:25;;;;;;;;;;;;;;;-3.54;90.07;95360.63;4961404;28;19922;-66
2023/12/20 06:24:50;;;;;;;;;;;;;;;-3.96;91.68;95375.38;4970235;28;20106;-65
2023/12/20 06:27:15;;;;;;;;;;;;;;;-4.02;92.67;95367.94;4960056;28;20306;-69
2023/12/20 06:29:42;;;;;;;;;;;;;;;-4.22;93.72;95370.81;4951361;28;19986;-66
2023/12/20 06:32:07;;;;;;;;;;;;;;;-4.01;93.08;95361.81;4963071;28;19965;-68
2023/12/20 06:34:33;;;;;;;;;;;;;;;-4.04;92.65;95379.28;4960611;28;20380;-67
2023/12/20 06:36:58;;;;;;;;;;;;;;;-3.65;91.84;95378.69;4960149;28;19930;-66
2023/12/20 06:39:23;;;;;;;;;;;;;;;-3.78;91.63;95379.47;4960516;28;19936;-69
2023/12/20 06:41:48;;;;;;;;;;;;;;;-3.93;92.28;95385.59;4958857;28;20397;-69
2023/12/20 06:44:14;;;;;;;;;;;;;;;-3.71;90.87;95379.06;4960375;28;19929;-68
2023/12/20 06:46:39;;;;;;;;;;;;;;;-3.52;90.52;95363.97;4966979;28;20024;-67
2023/12/20 06:49:04;;;;;;;;;;;;;;;-3.24;88.68;95360.53;4965084;28;19922;-67
2023/12/20 06:51:30;;;;;;;;;;;;;;;-3.41;90.08;95367.66;4965926;28;19926;-69
2023/12/20 06:53:56;;;;;;;;;;;;;;;-3.40;89.21;95357.16;4964461;28;20127;-66
2023/12/20 06:56:21;;;;;;;;;;;;;;;-3.64;90.73;95377.75;4965783;28;20053;-65
2023/12/20 06:58:46;;;;;;;;;;;;;;;-3.82;91.24;95369.31;4964007;28;19937;-63
2023/12/20 07:01:12;;;;;;;;;;;;;;;-4.26;94.02;95358.94;4962518;28;20045;-66
2023/12/20 07:03:37;;;;;;;;;;;;;;;-4.06;93.27;95373.34;4958078;28;19964;-65
2023/12/20 07:06:03;;;;;;;;;;;;;;;-3.70;92.47;95368.56;4961246;28;20371;-64
2023/12/20 07:08:28;;;;;;;;;;;;;;;-3.63;90.85;95358.63;4962328;28;20758;-63
2023/12/20 07:10:54;;;;;;;;;;;;;;;-3.58;91.09;95361.75;4961645;28;19929;-65
2023/12/20 07:13:19;;;;;;;;;;;;;;;-3.73;90.95;95366.16;4959957;28;20606;-65
2023/12/20 07:15:44;;;;;;;;;;;;;;;-3.95;91.82;95371.84;4964518;28;19961;-63
2023/12/20 07:18:09;;;;;;;;;;;;;;;-4.04;92.10;95374.06;4959676;28;20327;-65
2023/12/20 07:20:35;;;;;;;;;;;;;;;-4.05;94.21;95367.19;4964270;28;19922;-66
2023/12/20 07:23:00;;;;;;;;;;;;;;;-3.96;92.92;95371.03;4956657;28;20433;-65
2023/12/20 07:25:25;;;;;;;;;;;;;;;-3.75;92.51;95382.78;4959679;28;19932;-66
2023/12/20 07:27:50;;;;;;;;;;;;;;;-3.91;92.32;95384.56;4952249;28;19973;-64
2023/12/20 07:30:16;;;;;;;;;;;;;;;-3.75;91.83;95393.19;4952995;28;20146;-66
2023/12/20 07:32:41;;;;;;;;;;;;;;;-3.61;91.46;95377.56;4958179;28;19933;-67
2023/12/20 07:35:15;;;;;;;;;;;;;;;-3.91;92.18;95379.38;5095086;27;19951;-67
2023/12/20 07:37:40;;;;;;;;;;;;;;;-3.85;91.11;95383.34;5031035;27;20194;-66
2023/12/20 07:40:06;;;;;;;;;;;;;;;-4.01;92.64;95385.22;5034909;28;20309;-66
2023/12/20 07:42:31;;;;;;;;;;;;;;;-3.86;92.27;95386.06;5040349;28;19936;-65
2023/12/20 07:44:56;;;;;;;;;;;;;;;-3.93;92.88;95396.00;5040326;28;19924;-63
2023/12/20 07:47:22;;;;;;;;;;;;;;;-3.81;92.50;95386.59;5036745;28;19931;-62
2023/12/20 07:49:51;;;;;;;;;;;;;;;-3.84;93.35;95411.03;5020318;28;20146;-65
2023/12/20 07:52:16;;;;;;;;;;;;;;;-3.73;92.11;95412.16;5012947;28;20496;-65
2023/12/20 07:54:42;;;;;;;;;;;;;;;-3.46;90.90;95398.38;5019121;28;19996;-65
2023/12/20 07:57:07;;;;;;;;;;;;;;;-3.89;92.45;95396.63;5017981;28;20023;-63
2023/12/20 07:59:32;;;;;;;;;;;;;;;-3.79;92.51;95398.59;5021402;28;20085;-65
2023/12/20 08:01:58;;;;;;;;;;;;;;;-3.83;92.90;95388.47;5020892;28;19925;-64
2023/12/20 08:04:23;;;;;;;;;;;;;;;-3.82;92.91;95392.75;5027240;28;19924;-64
2023/12/20 08:06:49;;;;;;;;;;;;;;;-3.68;92.57;95400.53;5041085;28;19921;-68
2023/12/20 08:09:14;;;;;;;;;;;;;;;-3.60;92.41;95392.25;5040518;28;19964;-68
2023/12/20 08:11:39;;;;;;;;;;;;;;;-3.46;91.11;95407.00;5036852;28;19925;-67
2023/12/20 08:14:05;;;;;;;;;;;;;;;-3.59;91.47;95409.56;5041700;28;19944;-67
2023/12/20 08:16:30;;;;;;;;;;;;;;;-3.36;90.55;95424.66;5031876;28;20336;-67
2023/12/20 08:18:55;;;;;;;;;;;;;;;-3.20;89.94;95414.94;5037225;28;19957;-70
2023/12/20 08:21:22;;;;;;;;;;;;;;;-3.57;91.22;95418.09;5024050;28;20080;-68
2023/12/20 08:23:47;;;;;;;;;;;;;;;-3.52;90.25;95421.22;5019193;28;19929;-70
2023/12/20 08:26:13;;;;;;;;;;;;;;;-3.68;92.04;95425.72;5021152;28;20145;-66
2023/12/20 08:28:38;;;;;;;;;;;;;;;-3.75;92.11;95440.88;5018811;28;19924;-71
2023/12/20 08:31:03;;;;;;;;;;;;;;;-3.75;90.71;95435.66;5020921;28;19925;-70
2023/12/20 08:33:28;;;;;;;;;;;;;;;-3.96;92.46;95443.00;5013795;28;20137;-68
2023/12/20 08:35:54;;;;;;;;;;;;;;;-3.74;91.95;95423.50;5017668;28;19925;-68
2023/12/20 08:38:19;;;;;;;;;;;;;;;-3.83;91.75;95412.72;5038533;28;19925;-68
2023/12/20 08:40:44;;;;;;;;;;;;;;;-4.06;92.09;95435.75;5025236;28;19955;-70
2023/12/20 08:43:10;;;;;;;;;;;;;;;-3.86;91.74;95415.53;5017810;28;20341;-67
2023/12/20 08:45:35;;;;;;;;;;;;;;;-3.70;91.16;95425.00;5031280;28;19929;-69
2023/12/20 08:48:00;;;;;;;;;;;;;;;-3.75;90.64;95425.25;5020128;28;19932;-67
2023/12/20 08:50:25;;;;;;;;;;;;;;;-3.44;89.66;95417.31;5022233;28;19924;-69
2023/12/20 08:52:51;;;;;;;;;;;;;;;-3.48;89.71;95436.66;5018700;28;20403;-66
2023/12/20 08:55:18;;;;;;;;;;;;;;;-3.68;90.50;95425.72;5023593;28;19979;-68
2023/12/20 08:57:43;;;;;;;;;;;;;;;-3.11;88.26;95430.91;5022838;28;19929;-70
2023/12/20 09:00:08;;;;;;;;;;;;;;;-3.52;88.95;95417.81;5020242;28;19972;-69
2023/12/20 09:02:35;;;;;;;;;;;;;;;-3.34;89.01;95409.75;5019673;28;19925;-67
2023/12/20 09:05:01;;;;;;;;;;;;;;;-3.53;89.01;95416.97;5019049;28;19921;-65
2023/12/20 09:07:27;;;;;;;;;;;;;;;-3.77;89.83;95408.91;5018924;28;19997;-71
2023/12/20 09:09:52;;;;;;;;;;;;;;;-3.62;89.84;95417.53;5019656;28;20015;-70
2023/12/20 09:12:18;;;;;;;;;;;;;;;-3.82;90.43;95390.97;5018704;28;19939;-66
2023/12/20 09:14:44;;;;;;;;;;;;;;;-3.85;90.44;95395.53;5025098;28;19932;-67
2023/12/20 09:17:11;;;;;;;;;;;;;;;-3.69;90.55;95387.63;5027232;28;19925;-66
2023/12/20 09:19:36;;;;;;;;;;;;;;;-3.88;91.19;95409.56;5022596;28;19938;-67
2023/12/20 09:22:02;;;;;;;;;;;;;;;-3.49;89.75;95395.94;5021436;28;19924;-66
2023/12/20 09:24:27;;;;;;;;;;;;;;;-3.30;87.76;95419.06;5022411;28;20373;-70
2023/12/20 09:26:52;;;;;;;;;;;;;;;-3.46;88.83;95400.97;5025964;28;20250;-71
2023/12/20 09:29:18;;;;;;;;;;;;;;;-3.60;88.81;95401.84;5022808;28;19935;-64
2023/12/20 09:31:44;;;;;;;;;;;;;;;-3.73;89.67;95407.81;5024479;28;19924;-65
2023/12/20 09:34:09;;;;;;;;;;;;;;;-3.86;90.94;95417.28;5023558;28;20408;-69
2023/12/20 09:36:36;;;;;;;;;;;;;;;-3.83;89.85;95410.13;5021605;28;20689;-68
2023/12/20 09:39:01;;;;;;;;;;;;;;;-3.70;88.88;95425.00;5018011;28;19925;-69
2023/12/20 09:41:26;;;;;;;;;;;;;;;-3.96;90.45;95411.78;5025448;28;19925;-69
2023/12/20 09:43:52;;;;;;;;;;;;;;;-3.68;90.26;95404.91;5023934;28;19925;-66
2023/12/20 09:46:17;;;;;;;;;;;;;;;-3.84;88.89;95405.03;5023864;28;20019;-67
2023/12/20 09:48:43;;;;;;;;;;;;;;;-3.50;89.00;95412.50;5024748;28;19931;-66
2023/12/20 09:51:08;;;;;;;;;;;;;;;-3.56;88.62;95419.75;5023104;28;20140;-65
2023/12/20 09:53:34;;;;;;;;;;;;;;;-3.16;87.75;95415.59;5023631;28;19966;-68
2023/12/20 09:56:00;;;;;;;;;;;;;;;-3.03;85.17;95421.69;5023300;28;19959;-69
2023/12/20 09:58:25;;;;;;;;;;;;;;;-3.17;86.35;95424.34;5024910;28;20522;-68
2023/12/20 10:00:50;;;;;;;;;;;;;;;-3.31;85.62;95407.81;5023420;28;20027;-67
2023/12/20 10:03:16;;;;;;;;;;;;;;;-3.49;86.88;95408.97;5026080;28;20332;-68
2023/12/20 10:05:41;;;;;;;;;;;;;;;-3.33;86.97;95412.28;5024625;28;19975;-68
2023/12/20 10:08:06;;;;;;;;;;;;;;;-3.25;86.27;95396.19;5020886;28;19935;-67
2023/12/20 10:10:31;;;;;;;;;;;;;;;-3.20;85.76;95388.06;5024050;28;19999;-68
2023/12/20 10:13:03;;;;;;;;;;;;;;;-2.77;84.09;95389.66;5023505;28;19975;-66
2023/12/20 10:15:28;;;;;;;;;;;;;;;-2.91;84.00;95409.66;5022005;28;20472;-69
2023/12/20 10:17:54;;;;;;;;;;;;;;;-2.46;81.97;95387.66;5022564;28;19932;-70
2023/12/20 10:20:19;;;;;;;;;;;;;;;-2.32;80.55;95384.13;5024183;28;19999;-69
2023/12/20 10:22:46;;;;;;;;;;;;;;;-2.19;80.39;95389.34;5022982;28;19955;-67
2023/12/20 10:25:11;;;;;;;;;;;;;;;-2.19;78.27;95380.66;5021804;28;19924;-70
2023/12/20 10:27:37;;;;;;;;;;;;;;;-2.31;80.86;95379.75;5023592;28;19935;-67
2023/12/20 10:30:02;;;;;;;;;;;;;;;-2.51;81.30;95393.16;5025544;28;20548;-66
2023/12/20 10:32:27;;;;;;;;;;;;;;;-2.62;81.28;95382.59;5023855;28;19928;-65
2023/12/20 10:34:53;;;;;;;;;;;;;;;-3.03;81.39;95395.66;5025322;28;20632;-68
2023/12/20 10:37:18;;;;;;;;;;;;;;;-2.96;82.25;95390.03;5023297;28;19925;-66
2023/12/20 10:39:44;;;;;;;;;;;;;;;-3.13;84.13;95376.31;5021519;28;19925;-66
2023/12/20 10:42:12;;;;;;;;;;;;;;;-2.95;82.89;95376.91;5021335;28;19944;-66
2023/12/20 10:44:38;;;;;;;;;;;;;;;-2.90;83.29;95377.44;5018990;28;19955;-68
2023/12/20 10:47:03;;;;;;;;;;;;;;;-2.89;83.07;95373.91;5020029;28;19921;-67
2023/12/20 10:49:29;;;;;;;;;;;;;;;-2.96;82.42;95374.41;5018973;28;19924;-68
2023/12/20 10:51:54;;;;;;;;;;;;;;;-2.99;83.35;95377.22;5020459;28;19972;-66
2023/12/20 10:54:19;;;;;;;;;;;;;;;-2.72;82.40;95394.59;5023052;28;20010;-66
2023/12/20 10:56:45;;;;;;;;;;;;;;;-2.88;83.53;95398.19;5022563;28;19928;-68
2023/12/20 10:59:10;;;;;;;;;;;;;;;-2.94;82.90;95381.19;5021378;28;20653;-65
2023/12/20 11:01:36;;;;;;;;;;;;;;;-2.93;84.24;95385.47;5021028;28;19932;-67
2023/12/20 11:04:01;;;;;;;;;;;;;;;-2.97;83.32;95388.34;5023012;28;19986;-67
2023/12/20 11:06:32;;;;;;;;;;;;;;;-2.70;81.60;95392.72;5023130;28;20463;-66
2023/12/20 11:09:09;;;;;;;;;;;;;;;-2.45;82.73;95380.66;5019955;28;20019;-66
2023/12/20 11:11:47;;;;;;;;;;;;;;;-2.89;82.80;95373.91;5023083;28;19958;-66
2023/12/20 11:14:19;;;;;;;;;;;;;;;-2.66;83.64;95381.13;5020860;28;20318;-66
2023/12/20 11:16:45;;;;;;;;;;;;;;;-3.21;86.35;95381.19;5021274;28;19925;-67
2023/12/20 11:19:11;;;;;;;;;;;;;;;-2.92;84.53;95381.09;5023751;28;19932;-67
2023/12/20 11:21:36;;;;;;;;;;;;;;;-2.94;85.29;95388.16;5021166;28;19929;-65
2023/12/20 11:24:01;;;;;;;;;;;;;;;-2.78;85.09;95367.16;5021290;28;20557;-66
2023/12/20 11:26:27;;;;;;;;;;;;;;;-2.58;84.38;95368.44;5022993;28;19924;-66
2023/12/20 11:28:53;;;;;;;;;;;;;;;-2.56;83.89;95368.31;5020669;28;19925;-67
2023/12/20 11:31:19;;;;;;;;;;;;;;;-3.05;86.86;95368.03;5023162;28;19943;-67
2023/12/20 11:33:48;;;;;;;;;;;;;;;-2.84;85.71;95357.97;5017458;28;20056;-66
2023/12/20 11:36:13;;;;;;;;;;;;;;;-2.97;86.18;95355.34;5018679;28;19988;-66
2023/12/20 11:38:39;;;;;;;;;;;;;;;-3.20;87.32;95352.44;5022043;28;20143;-66
2023/12/20 11:41:07;;;;;;;;;;;;;;;-2.57;84.74;95354.47;5023686;28;19924;-67
2023/12/20 11:43:35;;;;;;;;;;;;;;;-2.73;85.42;95346.00;5017159;28;19928;-65
2023/12/20 11:46:05;;;;;;;;;;;;;;;-2.61;84.92;95353.00;5022409;28;20365;-66
2023/12/20 11:48:31;;;;;;;;;;;;;;;-2.46;84.51;95348.53;5022817;28;20453;-66
2023/12/20 11:50:56;;;;;;;;;;;;;;;-2.40;83.74;95355.97;5021974;28;20294;-66
2023/12/20 11:53:21;;;;;;;;;;;;;;;-2.75;85.14;95373.00;5020577;28;19940;-65
2023/12/20 11:55:49;;;;;;;;;;;;;;;-3.29;87.68;95368.66;5021163;28;19933;-65
2023/12/20 11:58:16;;;;;;;;;;;;;;;-2.97;86.36;95354.50;5015908;28;19925;-65
2023/12/20 12:00:41;;;;;;;;;;;;;;;-2.93;86.50;95350.75;5020152;28;19929;-65
2023/12/20 12:03:06;;;;;;;;;;;;;;;-3.27;88.35;95372.00;5016404;28;20190;-65
2023/12/20 12:05:32;;;;;;;;;;;;;;;-2.96;88.27;95350.97;5023075;28;19925;-65
2023/12/20 12:07:58;;;;;;;;;;;;;;;-3.06;87.73;95359.38;5021763;28;20277;-66
2023/12/20 12:10:23;;;;;;;;;;;;;;;-3.69;90.76;95357.25;5022992;28;19932;-66
2023/12/20 12:12:48;;;;;;;;;;;;;;;-3.28;90.76;95347.75;5024137;28;19936;-66
2023/12/20 12:15:14;;;;;;;;;;;;;;;-2.77;87.26;95346.22;5019779;28;19991;-66
2023/12/20 12:17:39;;;;;;;;;;;;;;;-2.59;85.64;95330.28;5024328;28;20162;-65
2023/12/20 12:20:05;;;;;;;;;;;;;;;-2.94;86.81;95336.91;5022810;28;19938;-66
2023/12/20 12:22:30;;;;;;;;;;;;;;;-2.67;87.37;95336.00;5023311;28;19932;-65
2023/12/20 12:24:58;;;;;;;;;;;;;;;-3.12;87.83;95343.31;5024900;28;19925;-65
2023/12/20 12:27:24;;;;;;;;;;;;;;;-2.78;87.92;95328.88;5024534;28;19925;-64
2023/12/20 12:30:03;;;;;;;;;;;;;;;-2.60;86.58;95331.22;5025902;28;19931;-65
2023/12/20 12:32:28;;;;;;;;;;;;;;;-2.96;86.89;95343.16;5024170;28;19963;-63
2023/12/20 12:34:54;;;;;;;;;;;;;;;-2.88;87.40;95330.44;5024189;28;20336;-65
2023/12/20 12:37:19;;;;;;;;;;;;;;;-2.92;87.69;95313.34;5024159;28;20233;-64
2023/12/20 12:39:46;;;;;;;;;;;;;;;-3.03;88.21;95314.03;5025627;28;19974;-64